Terminal Aerodrome Forecast
Issued by NWS Grand Forks, ND

Home | Current Version | Previous Version | Graphics & Text | Print | Product List | Glossary On
Versions: 1 2 3 4 5 6 7 8 9 10 11 12 13 14 15 16
500
FTUS43 KFGF 190520
TAFFAR
TAF
KFAR 190520Z 1906/2006 VRB06KT P6SM SCT200
     FM191200 12010KT P6SM BKN100
     FM200000 13012KT P6SM SCT200=

USA.gov is the U.S. government's official web portal to all federal, state and local government web resources and services.